sensor_id;sensor_type;location;lat;lon;timestamp;pressure;altitude;pressure_sealevel;temperature;humidity
12475;BME280;6302;42.624;23.334;2023-04-25T00:00:21;92585.38;;;10.78;100.00
12475;BME280;6302;42.624;23.334;2023-04-25T00:02:48;92585.28;;;10.81;100.00
12475;BME280;6302;42.624;23.334;2023-04-25T00:05:15;92576.13;;;10.86;100.00
12475;BME280;6302;42.624;23.334;2023-04-25T00:07:42;92566.19;;;10.90;100.00
12475;BME280;6302;42.624;23.334;2023-04-25T00:10:09;92561.50;;;10.97;100.00
12475;BME280;6302;42.624;23.334;2023-04-25T00:12:38;92552.53;;;10.91;100.00
12475;BME280;6302;42.624;23.334;2023-04-25T00:15:06;92551.38;;;10.92;100.00
12475;BME280;6302;42.624;23.334;2023-04-25T00:17:33;92545.59;;;10.97;100.00
12475;BME280;6302;42.624;23.334;2023-04-25T00:20:01;92539.63;;;10.93;100.00
12475;BME280;6302;42.624;23.334;2023-04-25T00:22:30;92521.94;;;10.87;100.00
12475;BME280;6302;42.624;23.334;2023-04-25T00:24:57;92526.84;;;10.88;100.00
12475;BME280;6302;42.624;23.334;2023-04-25T00:27:25;92519.38;;;10.83;100.00
12475;BME280;6302;42.624;23.334;2023-04-25T00:29:53;92509.44;;;10.87;100.00
12475;BME280;6302;42.624;23.334;2023-04-25T00:32:20;92492.88;;;10.83;100.00
12475;BME280;6302;42.624;23.334;2023-04-25T00:34:47;92511.59;;;10.76;100.00
12475;BME280;6302;42.624;23.334;2023-04-25T00:37:14;92498.53;;;10.85;100.00
12475;BME280;6302;42.624;23.334;2023-04-25T00:39:41;92471.81;;;10.60;100.00
12475;BME280;6302;42.624;23.334;2023-04-25T00:42:08;92486.09;;;10.82;100.00
12475;BME280;6302;42.624;23.334;2023-04-25T00:44:35;92481.69;;;10.76;100.00
12475;BME280;6302;42.624;23.334;2023-04-25T00:47:04;92480.13;;;10.78;100.00
12475;BME280;6302;42.624;23.334;2023-04-25T00:49:31;92491.38;;;10.82;100.00
12475;BME280;6302;42.624;23.334;2023-04-25T00:51:57;92487.47;;;10.71;100.00
12475;BME280;6302;42.624;23.334;2023-04-25T00:54:24;92487.22;;;10.65;100.00
12475;BME280;6302;42.624;23.334;2023-04-25T00:56:52;92487.03;;;10.56;100.00
12475;BME280;6302;42.624;23.334;2023-04-25T00:59:19;92494.22;;;10.56;100.00
12475;BME280;6302;42.624;23.334;2023-04-25T01:01:47;92503.16;;;10.62;100.00
12475;BME280;6302;42.624;23.334;2023-04-25T01:04:15;92500.13;;;10.63;100.00
12475;BME280;6302;42.624;23.334;2023-04-25T01:06:41;92496.06;;;10.59;100.00
12475;BME280;6302;42.624;23.334;2023-04-25T01:09:09;92495.78;;;10.53;100.00
12475;BME280;6302;42.624;23.334;2023-04-25T01:11:36;92493.06;;;10.57;100.00
12475;BME280;6302;42.624;23.334;2023-04-25T01:14:03;92485.53;;;10.55;100.00
12475;BME280;6302;42.624;23.334;2023-04-25T01:16:30;92468.81;;;10.58;100.00
12475;BME280;6302;42.624;23.334;2023-04-25T01:18:57;92453.25;;;10.60;100.00
12475;BME280;6302;42.624;23.334;2023-04-25T01:21:25;92452.84;;;10.62;100.00
12475;BME280;6302;42.624;23.334;2023-04-25T01:23:55;92465.09;;;10.72;100.00
12475;BME280;6302;42.624;23.334;2023-04-25T01:26:22;92453.59;;;10.62;100.00
12475;BME280;6302;42.624;23.334;2023-04-25T01:28:50;92457.75;;;10.63;100.00
12475;BME280;6302;42.624;23.334;2023-04-25T01:31:16;92467.53;;;10.66;100.00
12475;BME280;6302;42.624;23.334;2023-04-25T01:33:44;92475.81;;;10.68;100.00
12475;BME280;6302;42.624;23.334;2023-04-25T01:36:12;92467.44;;;10.70;100.00
12475;BME280;6302;42.624;23.334;2023-04-25T01:38:41;92469.59;;;10.75;100.00
12475;BME280;6302;42.624;23.334;2023-04-25T01:41:09;92477.28;;;10.69;100.00
12475;BME280;6302;42.624;23.334;2023-04-25T01:43:36;92483.91;;;10.61;100.00
12475;BME280;6302;42.624;23.334;2023-04-25T01:46:03;92478.41;;;10.52;100.00
12475;BME280;6302;42.624;23.334;2023-04-25T01:48:31;92478.75;;;10.54;100.00
12475;BME280;6302;42.624;23.334;2023-04-25T01:50:58;92488.84;;;10.59;100.00
12475;BME280;6302;42.624;23.334;2023-04-25T01:53:25;92487.28;;;10.62;100.00
12475;BME280;6302;42.624;23.334;2023-04-25T01:55:53;92485.81;;;10.61;100.00
12475;BME280;6302;42.624;23.334;2023-04-25T01:58:20;92486.19;;;10.59;100.00
12475;BME280;6302;42.624;23.334;2023-04-25T02:00:46;92499.31;;;10.66;100.00
12475;BME280;6302;42.624;23.334;2023-04-25T02:03:13;92486.72;;;10.54;100.00
12475;BME280;6302;42.624;23.334;2023-04-25T02:05:40;92485.25;;;10.50;100.00
12475;BME280;6302;42.624;23.334;2023-04-25T02:08:08;92490.97;;;10.48;100.00
12475;BME280;6302;42.624;23.334;2023-04-25T02:10:35;92478.50;;;10.49;100.00
12475;BME280;6302;42.624;23.334;2023-04-25T02:13:04;92480.81;;;10.47;100.00
12475;BME280;6302;42.624;23.334;2023-04-25T02:15:31;92467.81;;;10.52;100.00
12475;BME280;6302;42.624;23.334;2023-04-25T02:17:58;92475.84;;;10.49;100.00
12475;BME280;6302;42.624;23.334;2023-04-25T02:20:26;92458.38;;;10.51;100.00
12475;BME280;6302;42.624;23.334;2023-04-25T02:22:53;92453.41;;;10.53;100.00
12475;BME280;6302;42.624;23.334;2023-04-25T02:25:20;92451.75;;;10.59;100.00
12475;BME280;6302;42.624;23.334;2023-04-25T02:27:47;92447.97;;;10.60;100.00
12475;BME280;6302;42.624;23.334;2023-04-25T02:30:15;92444.16;;;10.61;100.00
12475;BME280;6302;42.624;23.334;2023-04-25T02:32:42;92441.50;;;10.61;100.00
12475;BME280;6302;42.624;23.334;2023-04-25T02:35:10;92438.50;;;10.59;100.00
12475;BME280;6302;42.624;23.334;2023-04-25T02:37:38;92448.44;;;10.55;100.00
12475;BME280;6302;42.624;23.334;2023-04-25T02:40:06;92443.16;;;10.55;100.00
12475;BME280;6302;42.624;23.334;2023-04-25T02:42:34;92438.28;;;10.54;100.00
12475;BME280;6302;42.624;23.334;2023-04-25T02:45:01;92448.78;;;10.57;100.00
12475;BME280;6302;42.624;23.334;2023-04-25T02:47:29;92440.44;;;10.59;100.00
12475;BME280;6302;42.624;23.334;2023-04-25T02:49:56;92440.50;;;10.55;100.00
12475;BME280;6302;42.624;23.334;2023-04-25T02:52:23;92434.13;;;10.53;100.00
12475;BME280;6302;42.624;23.334;2023-04-25T02:54:51;92429.91;;;10.55;100.00
12475;BME280;6302;42.624;23.334;2023-04-25T02:57:18;92428.91;;;10.49;100.00
12475;BME280;6302;42.624;23.334;2023-04-25T02:59:45;92424.44;;;10.46;100.00
12475;BME280;6302;42.624;23.334;2023-04-25T03:02:12;92427.16;;;10.42;100.00
12475;BME280;6302;42.624;23.334;2023-04-25T03:04:40;92411.91;;;10.30;100.00
12475;BME280;6302;42.624;23.334;2023-04-25T03:07:07;92410.47;;;10.26;100.00
12475;BME280;6302;42.624;23.334;2023-04-25T03:09:33;92408.25;;;10.24;100.00
12475;BME280;6302;42.624;23.334;2023-04-25T03:12:00;92415.13;;;10.22;100.00
12475;BME280;6302;42.624;23.334;2023-04-25T03:14:27;92412.78;;;10.24;100.00
12475;BME280;6302;42.624;23.334;2023-04-25T03:16:54;92404.66;;;10.15;100.00
12475;BME280;6302;42.624;23.334;2023-04-25T03:19:20;92411.91;;;10.11;100.00
12475;BME280;6302;42.624;23.334;2023-04-25T03:21:49;92398.63;;;10.14;100.00
12475;BME280;6302;42.624;23.334;2023-04-25T03:24:15;92410.69;;;9.96;100.00
12475;BME280;6302;42.624;23.334;2023-04-25T03:26:42;92417.97;;;9.92;100.00
12475;BME280;6302;42.624;23.334;2023-04-25T03:29:09;92419.38;;;9.96;100.00
12475;BME280;6302;42.624;23.334;2023-04-25T03:31:36;92415.16;;;9.99;100.00
12475;BME280;6302;42.624;23.334;2023-04-25T03:34:03;92416.59;;;10.03;100.00
12475;BME280;6302;42.624;23.334;2023-04-25T03:36:30;92423.44;;;10.01;100.00
12475;BME280;6302;42.624;23.334;2023-04-25T03:38:59;92419.66;;;10.02;100.00
12475;BME280;6302;42.624;23.334;2023-04-25T03:41:26;92424.13;;;10.05;100.00
12475;BME280;6302;42.624;23.334;2023-04-25T03:43:53;92428.69;;;10.04;100.00
12475;BME280;6302;42.624;23.334;2023-04-25T03:46:20;92426.28;;;10.10;100.00
12475;BME280;6302;42.624;23.334;2023-04-25T03:48:46;92413.44;;;10.12;100.00
12475;BME280;6302;42.624;23.334;2023-04-25T03:51:13;92404.66;;;10.15;100.00
12475;BME280;6302;42.624;23.334;2023-04-25T03:53:40;92408.66;;;10.23;100.00
12475;BME280;6302;42.624;23.334;2023-04-25T03:56:08;92405.06;;;10.49;100.00
12475;BME280;6302;42.624;23.334;2023-04-25T03:58:35;92407.53;;;10.40;100.00
12475;BME280;6302;42.624;23.334;2023-04-25T04:01:02;92399.03;;;10.49;100.00
12475;BME280;6302;42.624;23.334;2023-04-25T04:03:33;92389.75;;;10.57;100.00
12475;BME280;6302;42.624;23.334;2023-04-25T04:06:00;92392.84;;;10.71;100.00
12475;BME280;6302;42.624;23.334;2023-04-25T04:08:28;92398.78;;;10.91;100.00
12475;BME280;6302;42.624;23.334;2023-04-25T04:10:55;92408.75;;;11.03;100.00
12475;BME280;6302;42.624;23.334;2023-04-25T04:13:23;92412.03;;;11.24;100.00
12475;BME280;6302;42.624;23.334;2023-04-25T04:15:50;92425.28;;;11.24;100.00
12475;BME280;6302;42.624;23.334;2023-04-25T04:18:16;92430.75;;;11.17;100.00
12475;BME280;6302;42.624;23.334;2023-04-25T04:20:43;92433.91;;;11.11;100.00
12475;BME280;6302;42.624;23.334;2023-04-25T04:23:10;92427.31;;;11.03;100.00
12475;BME280;6302;42.624;23.334;2023-04-25T04:25:37;92423.31;;;11.11;100.00
12475;BME280;6302;42.624;23.334;2023-04-25T04:28:05;92421.97;;;11.20;100.00
12475;BME280;6302;42.624;23.334;2023-04-25T04:30:33;92412.38;;;11.26;100.00
12475;BME280;6302;42.624;23.334;2023-04-25T04:33:02;92414.34;;;11.22;100.00
12475;BME280;6302;42.624;23.334;2023-04-25T04:35:29;92420.50;;;11.02;100.00
12475;BME280;6302;42.624;23.334;2023-04-25T04:37:56;92426.47;;;10.90;100.00
12475;BME280;6302;42.624;23.334;2023-04-25T04:40:23;92420.91;;;10.85;100.00
12475;BME280;6302;42.624;23.334;2023-04-25T04:42:51;92418.97;;;10.69;100.00
12475;BME280;6302;42.624;23.334;2023-04-25T04:45:18;92398.44;;;10.57;100.00
12475;BME280;6302;42.624;23.334;2023-04-25T04:47:47;92428.59;;;10.79;100.00
12475;BME280;6302;42.624;23.334;2023-04-25T04:50:14;92424.97;;;10.73;100.00
12475;BME280;6302;42.624;23.334;2023-04-25T04:52:42;92427.28;;;10.71;100.00
12475;BME280;6302;42.624;23.334;2023-04-25T04:55:09;92429.78;;;10.78;100.00
12475;BME280;6302;42.624;23.334;2023-04-25T04:57:35;92415.69;;;10.81;100.00
12475;BME280;6302;42.624;23.334;2023-04-25T05:00:04;92429.94;;;10.87;100.00
12475;BME280;6302;42.624;23.334;2023-04-25T05:02:33;92432.69;;;11.00;100.00
12475;BME280;6302;42.624;23.334;2023-04-25T05:05:01;92439.56;;;10.97;100.00
12475;BME280;6302;42.624;23.334;2023-04-25T05:07:28;92445.09;;;10.87;100.00
12475;BME280;6302;42.624;23.334;2023-04-25T05:09:55;92448.41;;;10.75;100.00
12475;BME280;6302;42.624;23.334;2023-04-25T05:12:21;92444.16;;;10.61;100.00
12475;BME280;6302;42.624;23.334;2023-04-25T05:14:48;92447.47;;;10.65;100.00
12475;BME280;6302;42.624;23.334;2023-04-25T05:17:15;92454.16;;;10.54;100.00
12475;BME280;6302;42.624;23.334;2023-04-25T05:19:42;92463.84;;;10.60;100.00
12475;BME280;6302;42.624;23.334;2023-04-25T05:22:10;92458.06;;;10.65;100.00
12475;BME280;6302;42.624;23.334;2023-04-25T05:24:39;92448.63;;;10.64;100.00
12475;BME280;6302;42.624;23.334;2023-04-25T05:27:05;92454.34;;;10.63;100.00
12475;BME280;6302;42.624;23.334;2023-04-25T05:29:32;92454.66;;;10.65;100.00
12475;BME280;6302;42.624;23.334;2023-04-25T05:32:00;92458.41;;;10.67;100.00
12475;BME280;6302;42.624;23.334;2023-04-25T05:34:27;92461.03;;;10.67;100.00
12475;BME280;6302;42.624;23.334;2023-04-25T05:36:54;92457.00;;;10.63;100.00
12475;BME280;6302;42.624;23.334;2023-04-25T05:39:22;92455.56;;;10.58;100.00
12475;BME280;6302;42.624;23.334;2023-04-25T05:41:49;92454.06;;;10.41;100.00
12475;BME280;6302;42.624;23.334;2023-04-25T05:44:15;92460.59;;;10.36;100.00
12475;BME280;6302;42.624;23.334;2023-04-25T05:46:42;92463.56;;;10.38;100.00
12475;BME280;6302;42.624;23.334;2023-04-25T05:49:09;92463.88;;;10.40;100.00
12475;BME280;6302;42.624;23.334;2023-04-25T05:51:36;92459.38;;;10.57;100.00
12475;BME280;6302;42.624;23.334;2023-04-25T05:54:03;92465.25;;;10.65;100.00
12475;BME280;6302;42.624;23.334;2023-04-25T05:56:31;92474.13;;;10.74;100.00
12475;BME280;6302;42.624;23.334;2023-04-25T05:58:58;92469.44;;;10.82;100.00
12475;BME280;6302;42.624;23.334;2023-04-25T06:01:25;92475.31;;;10.89;100.00
12475;BME280;6302;42.624;23.334;2023-04-25T06:03:51;92464.72;;;10.89;100.00
12475;BME280;6302;42.624;23.334;2023-04-25T06:06:19;92465.91;;;11.04;100.00
12475;BME280;6302;42.624;23.334;2023-04-25T06:08:45;92468.22;;;11.19;100.00
12475;BME280;6302;42.624;23.334;2023-04-25T06:11:12;92460.75;;;11.30;100.00
12475;BME280;6302;42.624;23.334;2023-04-25T06:13:40;92462.09;;;11.38;100.00
12475;BME280;6302;42.624;23.334;2023-04-25T06:16:07;92458.09;;;11.30;100.00
12475;BME280;6302;42.624;23.334;2023-04-25T06:18:34;92455.34;;;11.33;100.00
12475;BME280;6302;42.624;23.334;2023-04-25T06:21:01;92456.59;;;11.45;100.00
12475;BME280;6302;42.624;23.334;2023-04-25T06:23:27;92449.81;;;11.28;100.00
12475;BME280;6302;42.624;23.334;2023-04-25T06:25:54;92460.84;;;11.26;100.00
12475;BME280;6302;42.624;23.334;2023-04-25T06:28:21;92471.19;;;11.37;100.00
12475;BME280;6302;42.624;23.334;2023-04-25T06:30:51;92464.56;;;11.45;100.00
12475;BME280;6302;42.624;23.334;2023-04-25T06:33:17;92470.44;;;11.52;100.00
12475;BME280;6302;42.624;23.334;2023-04-25T06:35:45;92468.19;;;11.67;100.00
12475;BME280;6302;42.624;23.334;2023-04-25T06:38:12;92459.16;;;11.64;100.00
12475;BME280;6302;42.624;23.334;2023-04-25T06:40:39;92470.81;;;11.83;100.00
12475;BME280;6302;42.624;23.334;2023-04-25T06:43:05;92480.03;;;12.07;100.00
12475;BME280;6302;42.624;23.334;2023-04-25T06:45:32;92479.75;;;12.18;100.00
12475;BME280;6302;42.624;23.334;2023-04-25T06:48:00;92486.72;;;12.40;100.00
12475;BME280;6302;42.624;23.334;2023-04-25T06:50:27;92490.16;;;12.54;100.00
12475;BME280;6302;42.624;23.334;2023-04-25T06:52:54;92483.81;;;12.64;100.00
12475;BME280;6302;42.624;23.334;2023-04-25T06:55:21;92487.63;;;12.75;100.00
12475;BME280;6302;42.624;23.334;2023-04-25T06:57:48;92484.47;;;12.93;100.00
12475;BME280;6302;42.624;23.334;2023-04-25T07:00:15;92475.44;;;13.03;100.00
12475;BME280;6302;42.624;23.334;2023-04-25T07:02:42;92474.47;;;12.97;100.00
12475;BME280;6302;42.624;23.334;2023-04-25T07:05:10;92481.81;;;12.93;100.00
12475;BME280;6302;42.624;23.334;2023-04-25T07:07:37;92487.53;;;13.04;100.00
12475;BME280;6302;42.624;23.334;2023-04-25T07:10:04;92486.19;;;13.12;100.00
12475;BME280;6302;42.624;23.334;2023-04-25T07:12:31;92480.25;;;13.08;100.00
12475;BME280;6302;42.624;23.334;2023-04-25T07:14:58;92480.78;;;13.16;100.00
12475;BME280;6302;42.624;23.334;2023-04-25T07:17:31;92474.03;;;13.11;100.00
12475;BME280;6302;42.624;23.334;2023-04-25T07:19:58;92467.13;;;13.01;100.00
12475;BME280;6302;42.624;23.334;2023-04-25T07:22:26;92471.91;;;12.93;100.00
12475;BME280;6302;42.624;23.334;2023-04-25T07:24:53;92469.25;;;12.81;100.00
12475;BME280;6302;42.624;23.334;2023-04-25T07:27:20;92470.72;;;12.69;100.00
12475;BME280;6302;42.624;23.334;2023-04-25T07:29:47;92463.38;;;12.61;100.00
12475;BME280;6302;42.624;23.334;2023-04-25T07:32:13;92470.00;;;12.69;100.00
12475;BME280;6302;42.624;23.334;2023-04-25T07:34:40;92464.16;;;12.74;100.00
12475;BME280;6302;42.624;23.334;2023-04-25T07:37:07;92466.16;;;12.95;100.00
12475;BME280;6302;42.624;23.334;2023-04-25T07:39:35;92470.50;;;13.01;100.00
12475;BME280;6302;42.624;23.334;2023-04-25T07:42:02;92469.78;;;13.01;100.00
12475;BME280;6302;42.624;23.334;2023-04-25T07:44:31;92473.63;;;13.00;100.00
12475;BME280;6302;42.624;23.334;2023-04-25T07:47:04;92461.91;;;12.85;100.00
12475;BME280;6302;42.624;23.334;2023-04-25T07:49:32;92463.28;;;12.89;100.00
12475;BME280;6302;42.624;23.334;2023-04-25T07:51:59;92457.88;;;12.93;100.00
12475;BME280;6302;42.624;23.334;2023-04-25T07:54:26;92455.00;;;12.87;100.00
12475;BME280;6302;42.624;23.334;2023-04-25T07:56:54;92466.38;;;12.88;100.00
12475;BME280;6302;42.624;23.334;2023-04-25T07:59:21;92460.00;;;12.98;100.00
12475;BME280;6302;42.624;23.334;2023-04-25T08:01:48;92459.56;;;13.25;100.00
12475;BME280;6302;42.624;23.334;2023-04-25T08:04:15;92455.59;;;13.42;100.00
12475;BME280;6302;42.624;23.334;2023-04-25T08:06:42;92452.44;;;13.34;100.00
12475;BME280;6302;42.624;23.334;2023-04-25T08:09:09;92460.31;;;13.38;100.00
12475;BME280;6302;42.624;23.334;2023-04-25T08:11:36;92447.25;;;13.65;100.00
12475;BME280;6302;42.624;23.334;2023-04-25T08:14:05;92457.63;;;13.85;100.00
12475;BME280;6302;42.624;23.334;2023-04-25T08:16:32;92454.22;;;13.84;100.00
12475;BME280;6302;42.624;23.334;2023-04-25T08:18:59;92460.19;;;13.76;100.00
12475;BME280;6302;42.624;23.334;2023-04-25T08:21:25;92455.88;;;13.91;100.00
12475;BME280;6302;42.624;23.334;2023-04-25T08:23:53;92447.91;;;14.12;100.00
12475;BME280;6302;42.624;23.334;2023-04-25T08:26:20;92449.66;;;14.28;100.00
12475;BME280;6302;42.624;23.334;2023-04-25T08:28:46;92448.28;;;14.45;100.00
12475;BME280;6302;42.624;23.334;2023-04-25T08:31:15;92456.09;;;14.61;100.00
12475;BME280;6302;42.624;23.334;2023-04-25T08:33:42;92449.75;;;14.68;100.00
12475;BME280;6302;42.624;23.334;2023-04-25T08:36:10;92439.91;;;14.86;100.00
12475;BME280;6302;42.624;23.334;2023-04-25T08:38:37;92446.84;;;15.15;100.00
12475;BME280;6302;42.624;23.334;2023-04-25T08:41:05;92453.56;;;15.37;100.00
12475;BME280;6302;42.624;23.334;2023-04-25T08:43:34;92451.00;;;15.74;100.00
12475;BME280;6302;42.624;23.334;2023-04-25T08:46:01;92453.38;;;15.72;100.00
12475;BME280;6302;42.624;23.334;2023-04-25T08:48:32;92462.19;;;15.41;100.00
12475;BME280;6302;42.624;23.334;2023-04-25T08:51:02;92459.31;;;15.18;100.00
12475;BME280;6302;42.624;23.334;2023-04-25T08:53:30;92460.47;;;15.17;100.00
12475;BME280;6302;42.624;23.334;2023-04-25T08:55:59;92447.59;;;15.24;100.00
12475;BME280;6302;42.624;23.334;2023-04-25T08:58:27;92442.44;;;15.30;100.00
12475;BME280;6302;42.624;23.334;2023-04-25T09:00:54;92435.91;;;15.31;100.00
12475;BME280;6302;42.624;23.334;2023-04-25T09:03:22;92439.84;;;15.57;100.00
12475;BME280;6302;42.624;23.334;2023-04-25T09:05:51;92439.25;;;15.62;100.00
12475;BME280;6302;42.624;23.334;2023-04-25T09:08:18;92441.31;;;15.49;100.00
12475;BME280;6302;42.624;23.334;2023-04-25T09:10:44;92439.16;;;15.26;100.00
12475;BME280;6302;42.624;23.334;2023-04-25T09:13:13;92444.75;;;15.19;100.00
12475;BME280;6302;42.624;23.334;2023-04-25T09:15:47;92441.78;;;15.17;100.00
12475;BME280;6302;42.624;23.334;2023-04-25T09:18:22;92441.31;;;15.09;100.00
12475;BME280;6302;42.624;23.334;2023-04-25T09:20:51;92443.59;;;15.20;100.00
12475;BME280;6302;42.624;23.334;2023-04-25T09:23:19;92441.78;;;15.17;100.00
12475;BME280;6302;42.624;23.334;2023-04-25T09:25:47;92433.97;;;15.22;100.00
12475;BME280;6302;42.624;23.334;2023-04-25T09:28:14;92431.50;;;15.46;100.00
12475;BME280;6302;42.624;23.334;2023-04-25T09:30:42;92424.13;;;15.50;100.00
12475;BME280;6302;42.624;23.334;2023-04-25T09:33:10;92430.03;;;15.45;100.00
12475;BME280;6302;42.624;23.334;2023-04-25T09:35:38;92427.00;;;15.25;100.00
12475;BME280;6302;42.624;23.334;2023-04-25T09:38:12;92420.31;;;15.20;100.00
12475;BME280;6302;42.624;23.334;2023-04-25T09:40:45;92419.88;;;15.31;100.00
12475;BME280;6302;42.624;23.334;2023-04-25T09:43:19;92427.19;;;15.39;100.00
12475;BME280;6302;42.624;23.334;2023-04-25T09:45:46;92424.50;;;15.39;100.00
12475;BME280;6302;42.624;23.334;2023-04-25T09:48:17;92426.16;;;15.46;100.00
12475;BME280;6302;42.624;23.334;2023-04-25T09:50:44;92426.78;;;15.50;100.00
12475;BME280;6302;42.624;23.334;2023-04-25T09:53:13;92426.91;;;15.55;100.00
12475;BME280;6302;42.624;23.334;2023-04-25T09:55:41;92426.03;;;15.58;100.00
12475;BME280;6302;42.624;23.334;2023-04-25T09:58:10;92429.47;;;15.59;100.00
12475;BME280;6302;42.624;23.334;2023-04-25T10:00:38;92417.59;;;15.69;100.00
12475;BME280;6302;42.624;23.334;2023-04-25T10:03:06;92416.72;;;15.81;100.00
12475;BME280;6302;42.624;23.334;2023-04-25T10:05:34;92416.88;;;15.87;100.00
12475;BME280;6302;42.624;23.334;2023-04-25T10:08:03;92417.59;;;15.69;100.00
12475;BME280;6302;42.624;23.334;2023-04-25T10:10:32;92415.22;;;15.71;100.00
12475;BME280;6302;42.624;23.334;2023-04-25T10:13:03;92412.72;;;15.77;100.00
12475;BME280;6302;42.624;23.334;2023-04-25T10:15:31;92424.88;;;15.59;100.00
12475;BME280;6302;42.624;23.334;2023-04-25T10:17:59;92425.00;;;15.47;100.00
12475;BME280;6302;42.624;23.334;2023-04-25T10:20:26;92423.41;;;15.19;100.00
12475;BME280;6302;42.624;23.334;2023-04-25T10:22:55;92429.91;;;15.09;100.00
12475;BME280;6302;42.624;23.334;2023-04-25T10:25:24;92412.28;;;15.11;100.00
12475;BME280;6302;42.624;23.334;2023-04-25T10:27:53;92407.00;;;15.29;100.00
12475;BME280;6302;42.624;23.334;2023-04-25T10:30:20;92397.47;;;15.19;100.00
12475;BME280;6302;42.624;23.334;2023-04-25T10:32:47;92398.22;;;15.29;100.00
12475;BME280;6302;42.624;23.334;2023-04-25T10:35:17;92414.94;;;15.60;100.00
12475;BME280;6302;42.624;23.334;2023-04-25T10:37:57;92405.44;;;15.77;100.00
12475;BME280;6302;42.624;23.334;2023-04-25T10:40:25;92402.59;;;15.81;95.51
12475;BME280;6302;42.624;23.334;2023-04-25T10:42:53;92408.84;;;15.78;91.22
12475;BME280;6302;42.624;23.334;2023-04-25T10:45:21;92411.66;;;15.83;85.06
12475;BME280;6302;42.624;23.334;2023-04-25T10:47:49;92409.88;;;16.07;86.02
12475;BME280;6302;42.624;23.334;2023-04-25T10:50:15;92411.50;;;15.96;80.28
12475;BME280;6302;42.624;23.334;2023-04-25T10:52:42;92424.59;;;15.85;83.00
12475;BME280;6302;42.624;23.334;2023-04-25T10:55:10;92416.41;;;15.88;86.91
12475;BME280;6302;42.624;23.334;2023-04-25T10:57:38;92433.31;;;15.85;86.64
12475;BME280;6302;42.624;23.334;2023-04-25T11:00:10;92442.53;;;15.75;89.20
12475;BME280;6302;42.624;23.334;2023-04-25T11:02:40;92433.34;;;15.76;94.86
12475;BME280;6302;42.624;23.334;2023-04-25T11:05:08;92430.97;;;15.60;98.28
12475;BME280;6302;42.624;23.334;2023-04-25T11:07:38;92417.59;;;15.60;100.00
12475;BME280;6302;42.624;23.334;2023-04-25T11:10:10;92406.59;;;15.49;100.00
12475;BME280;6302;42.624;23.334;2023-04-25T11:12:37;92399.63;;;15.60;100.00
12475;BME280;6302;42.624;23.334;2023-04-25T11:15:05;92398.31;;;15.92;100.00
12475;BME280;6302;42.624;23.334;2023-04-25T11:17:34;92393.56;;;16.14;100.00
12475;BME280;6302;42.624;23.334;2023-04-25T11:20:01;92387.56;;;16.28;100.00
12475;BME280;6302;42.624;23.334;2023-04-25T11:22:31;92389.91;;;16.45;100.00
12475;BME280;6302;42.624;23.334;2023-04-25T11:25:04;92389.66;;;16.84;93.53
12475;BME280;6302;42.624;23.334;2023-04-25T11:27:31;92348.94;;;16.80;77.84
12475;BME280;6302;42.624;23.334;2023-04-25T11:29:58;92378.41;;;17.04;77.71
12475;BME280;6302;42.624;23.334;2023-04-25T11:32:25;92387.53;;;16.98;75.74
12475;BME280;6302;42.624;23.334;2023-04-25T11:34:53;92390.44;;;16.76;78.38
12475;BME280;6302;42.624;23.334;2023-04-25T11:37:19;92391.09;;;16.53;81.08
12475;BME280;6302;42.624;23.334;2023-04-25T11:39:47;92394.88;;;16.01;92.34
12475;BME280;6302;42.624;23.334;2023-04-25T11:42:13;92390.59;;;15.85;97.27
12475;BME280;6302;42.624;23.334;2023-04-25T11:44:40;92400.53;;;15.76;96.78
12475;BME280;6302;42.624;23.334;2023-04-25T11:47:07;92412.09;;;15.54;97.24
12475;BME280;6302;42.624;23.334;2023-04-25T11:49:35;92421.50;;;15.28;96.95
12475;BME280;6302;42.624;23.334;2023-04-25T11:52:06;92419.03;;;14.94;99.48
12475;BME280;6302;42.624;23.334;2023-04-25T11:54:35;92444.69;;;13.96;100.00
12475;BME280;6302;42.624;23.334;2023-04-25T11:57:02;92441.25;;;13.39;100.00
12475;BME280;6302;42.624;23.334;2023-04-25T11:59:29;92434.56;;;13.22;100.00
12475;BME280;6302;42.624;23.334;2023-04-25T12:01:56;92419.16;;;13.17;100.00
12475;BME280;6302;42.624;23.334;2023-04-25T12:04:24;92382.53;;;13.21;100.00
12475;BME280;6302;42.624;23.334;2023-04-25T12:06:52;92383.19;;;13.25;100.00
12475;BME280;6302;42.624;23.334;2023-04-25T12:09:27;92383.31;;;13.43;100.00
12475;BME280;6302;42.624;23.334;2023-04-25T12:11:55;92377.28;;;13.64;100.00
12475;BME280;6302;42.624;23.334;2023-04-25T12:14:24;92363.66;;;14.06;100.00
12475;BME280;6302;42.624;23.334;2023-04-25T12:16:54;92356.63;;;14.43;100.00
12475;BME280;6302;42.624;23.334;2023-04-25T12:19:23;92351.13;;;14.77;100.00
12475;BME280;6302;42.624;23.334;2023-04-25T12:21:50;92359.94;;;15.05;100.00
12475;BME280;6302;42.624;23.334;2023-04-25T12:24:21;92356.72;;;15.37;100.00
12475;BME280;6302;42.624;23.334;2023-04-25T12:26:52;92363.88;;;15.76;100.00
12475;BME280;6302;42.624;23.334;2023-04-25T12:29:21;92322.38;;;15.48;100.00
12475;BME280;6302;42.624;23.334;2023-04-25T12:31:50;92365.22;;;15.81;100.00
12475;BME280;6302;42.624;23.334;2023-04-25T12:34:17;92367.72;;;15.75;100.00
12475;BME280;6302;42.624;23.334;2023-04-25T12:36:45;92371.88;;;15.85;100.00
12475;BME280;6302;42.624;23.334;2023-04-25T12:39:16;92381.84;;;15.94;100.00
12475;BME280;6302;42.624;23.334;2023-04-25T12:41:43;92409.28;;;15.76;100.00
12475;BME280;6302;42.624;23.334;2023-04-25T12:44:12;92416.53;;;14.99;100.00
12475;BME280;6302;42.624;23.334;2023-04-25T12:46:40;92431.28;;;14.73;100.00
12475;BME280;6302;42.624;23.334;2023-04-25T12:49:07;92448.59;;;14.04;100.00
12475;BME280;6302;42.624;23.334;2023-04-25T12:51:35;92434.75;;;13.75;100.00